sensor_id;sensor_type;location;lat;lon;timestamp;temperature;humidity
70079;DHT22;57451;52.496;13.456;2023-02-22T00:00:39;9.10;62.60
70079;DHT22;57451;52.496;13.456;2023-02-22T00:03:13;9.10;62.80
70079;DHT22;57451;52.496;13.456;2023-02-22T00:05:43;9.10;62.90
70079;DHT22;57451;52.496;13.456;2023-02-22T00:08:15;9.10;63.00
70079;DHT22;57451;52.496;13.456;2023-02-22T00:10:43;9.10;62.80
70079;DHT22;57451;52.496;13.456;2023-02-22T00:13:12;9.10;63.10
70079;DHT22;57451;52.496;13.456;2023-02-22T00:15:40;9.00;63.30
70079;DHT22;57451;52.496;13.456;2023-02-22T00:18:08;9.00;63.30
70079;DHT22;57451;52.496;13.456;2023-02-22T00:20:39;9.00;63.50
70079;DHT22;57451;52.496;13.456;2023-02-22T00:23:12;9.10;63.50
70079;DHT22;57451;52.496;13.456;2023-02-22T00:25:40;9.00;63.50
70079;DHT22;57451;52.496;13.456;2023-02-22T00:28:08;9.00;63.60
70079;DHT22;57451;52.496;13.456;2023-02-22T00:30:35;9.00;63.50
70079;DHT22;57451;52.496;13.456;2023-02-22T00:33:02;9.00;63.60
70079;DHT22;57451;52.496;13.456;2023-02-22T00:35:33;9.00;63.60
70079;DHT22;57451;52.496;13.456;2023-02-22T00:38:01;9.00;63.50
70079;DHT22;57451;52.496;13.456;2023-02-22T00:40:30;9.00;63.50
70079;DHT22;57451;52.496;13.456;2023-02-22T00:43:00;9.00;63.50
70079;DHT22;57451;52.496;13.456;2023-02-22T00:45:29;8.90;63.50
70079;DHT22;57451;52.496;13.456;2023-02-22T00:47:57;8.90;63.60
70079;DHT22;57451;52.496;13.456;2023-02-22T00:50:27;8.90;63.70
70079;DHT22;57451;52.496;13.456;2023-02-22T00:52:56;8.90;63.70
70079;DHT22;57451;52.496;13.456;2023-02-22T00:55:25;8.90;63.70
70079;DHT22;57451;52.496;13.456;2023-02-22T00:57:53;8.90;63.90
70079;DHT22;57451;52.496;13.456;2023-02-22T01:00:24;8.80;64.00
70079;DHT22;57451;52.496;13.456;2023-02-22T01:02:52;8.80;64.00
70079;DHT22;57451;52.496;13.456;2023-02-22T01:05:23;8.80;63.70
70079;DHT22;57451;52.496;13.456;2023-02-22T01:07:53;8.80;63.70
70079;DHT22;57451;52.496;13.456;2023-02-22T01:10:24;8.80;63.90
70079;DHT22;57451;52.496;13.456;2023-02-22T01:12:52;8.80;64.10
70079;DHT22;57451;52.496;13.456;2023-02-22T01:15:23;8.80;64.10
70079;DHT22;57451;52.496;13.456;2023-02-22T01:17:52;8.80;64.10
70079;DHT22;57451;52.496;13.456;2023-02-22T01:20:20;8.80;64.10
70079;DHT22;57451;52.496;13.456;2023-02-22T01:22:50;8.80;64.20
70079;DHT22;57451;52.496;13.456;2023-02-22T01:25:21;8.70;64.10
70079;DHT22;57451;52.496;13.456;2023-02-22T01:27:49;8.70;64.10
70079;DHT22;57451;52.496;13.456;2023-02-22T01:30:20;8.70;64.10
70079;DHT22;57451;52.496;13.456;2023-02-22T01:32:48;8.70;64.20
70079;DHT22;57451;52.496;13.456;2023-02-22T01:35:20;8.70;64.10
70079;DHT22;57451;52.496;13.456;2023-02-22T01:37:47;8.70;64.10
70079;DHT22;57451;52.496;13.456;2023-02-22T01:40:17;8.70;64.00
70079;DHT22;57451;52.496;13.456;2023-02-22T01:42:48;8.70;64.00
70079;DHT22;57451;52.496;13.456;2023-02-22T01:45:38;8.70;64.10
70079;DHT22;57451;52.496;13.456;2023-02-22T01:48:12;8.60;64.00
70079;DHT22;57451;52.496;13.456;2023-02-22T01:50:43;8.60;64.30
70079;DHT22;57451;52.496;13.456;2023-02-22T01:53:14;8.60;64.30
70079;DHT22;57451;52.496;13.456;2023-02-22T01:55:43;8.60;64.50
70079;DHT22;57451;52.496;13.456;2023-02-22T01:58:12;8.50;64.50
70079;DHT22;57451;52.496;13.456;2023-02-22T02:00:41;8.50;64.80
70079;DHT22;57451;52.496;13.456;2023-02-22T02:03:14;8.50;65.10
70079;DHT22;57451;52.496;13.456;2023-02-22T02:05:43;8.40;65.10
70079;DHT22;57451;52.496;13.456;2023-02-22T02:08:20;8.40;64.90
70079;DHT22;57451;52.496;13.456;2023-02-22T02:10:49;8.40;64.90
70079;DHT22;57451;52.496;13.456;2023-02-22T02:13:17;8.30;64.90
70079;DHT22;57451;52.496;13.456;2023-02-22T02:15:44;8.30;65.00
70079;DHT22;57451;52.496;13.456;2023-02-22T02:18:13;8.30;64.90
70079;DHT22;57451;52.496;13.456;2023-02-22T02:20:47;8.20;65.20
70079;DHT22;57451;52.496;13.456;2023-02-22T02:23:35;8.20;65.50
70079;DHT22;57451;52.496;13.456;2023-02-22T02:26:22;8.10;65.70
70079;DHT22;57451;52.496;13.456;2023-02-22T02:29:28;8.00;66.00
70079;DHT22;57451;52.496;13.456;2023-02-22T02:32:19;7.90;66.30
70079;DHT22;57451;52.496;13.456;2023-02-22T02:34:49;7.90;66.50
70079;DHT22;57451;52.496;13.456;2023-02-22T02:37:27;7.90;66.60
70079;DHT22;57451;52.496;13.456;2023-02-22T02:40:04;7.80;66.90
70079;DHT22;57451;52.496;13.456;2023-02-22T02:42:41;7.80;67.10
70079;DHT22;57451;52.496;13.456;2023-02-22T02:45:12;7.80;67.20
70079;DHT22;57451;52.496;13.456;2023-02-22T02:47:46;7.80;67.40
70079;DHT22;57451;52.496;13.456;2023-02-22T02:50:19;7.80;67.50
70079;DHT22;57451;52.496;13.456;2023-02-22T02:52:48;7.80;67.70
70079;DHT22;57451;52.496;13.456;2023-02-22T02:55:17;7.80;67.70
70079;DHT22;57451;52.496;13.456;2023-02-22T02:57:44;7.70;67.60
70079;DHT22;57451;52.496;13.456;2023-02-22T03:00:16;7.70;67.50
70079;DHT22;57451;52.496;13.456;2023-02-22T03:03:00;7.60;67.70
70079;DHT22;57451;52.496;13.456;2023-02-22T03:05:47;7.60;68.20
70079;DHT22;57451;52.496;13.456;2023-02-22T03:08:26;7.60;68.20
70079;DHT22;57451;52.496;13.456;2023-02-22T03:11:04;7.50;68.40
70079;DHT22;57451;52.496;13.456;2023-02-22T03:13:39;7.50;68.70
70079;DHT22;57451;52.496;13.456;2023-02-22T03:16:14;7.50;68.70
70079;DHT22;57451;52.496;13.456;2023-02-22T03:18:54;7.50;68.70
70079;DHT22;57451;52.496;13.456;2023-02-22T03:21:27;7.50;68.70
70079;DHT22;57451;52.496;13.456;2023-02-22T03:24:03;7.50;69.00
70079;DHT22;57451;52.496;13.456;2023-02-22T03:26:35;7.50;69.40
70079;DHT22;57451;52.496;13.456;2023-02-22T03:29:05;7.40;69.90
70079;DHT22;57451;52.496;13.456;2023-02-22T03:31:37;7.40;70.00
70079;DHT22;57451;52.496;13.456;2023-02-22T03:34:11;7.40;70.40
70079;DHT22;57451;52.496;13.456;2023-02-22T03:36:46;7.40;70.40
70079;DHT22;57451;52.496;13.456;2023-02-22T03:39:15;7.40;70.70
70079;DHT22;57451;52.496;13.456;2023-02-22T03:41:48;7.40;70.90
70079;DHT22;57451;52.496;13.456;2023-02-22T03:44:23;7.40;71.10
70079;DHT22;57451;52.496;13.456;2023-02-22T03:46:53;7.40;71.30
70079;DHT22;57451;52.496;13.456;2023-02-22T03:49:31;7.40;71.40
70079;DHT22;57451;52.496;13.456;2023-02-22T03:52:00;7.50;71.60
70079;DHT22;57451;52.496;13.456;2023-02-22T03:54:29;7.40;71.50
70079;DHT22;57451;52.496;13.456;2023-02-22T03:56:59;7.40;71.90
70079;DHT22;57451;52.496;13.456;2023-02-22T03:59:31;7.50;72.00
70079;DHT22;57451;52.496;13.456;2023-02-22T04:01:59;7.50;72.10
70079;DHT22;57451;52.496;13.456;2023-02-22T04:04:27;7.50;72.10
70079;DHT22;57451;52.496;13.456;2023-02-22T04:06:55;7.50;72.00
70079;DHT22;57451;52.496;13.456;2023-02-22T04:09:22;7.50;71.80
70079;DHT22;57451;52.496;13.456;2023-02-22T04:11:50;7.50;71.40
70079;DHT22;57451;52.496;13.456;2023-02-22T04:14:17;7.50;71.80
70079;DHT22;57451;52.496;13.456;2023-02-22T04:16:44;7.50;72.20
70079;DHT22;57451;52.496;13.456;2023-02-22T04:19:11;7.60;72.00
70079;DHT22;57451;52.496;13.456;2023-02-22T04:21:40;7.60;71.40
70079;DHT22;57451;52.496;13.456;2023-02-22T04:24:14;7.50;71.60
70079;DHT22;57451;52.496;13.456;2023-02-22T04:26:42;7.60;71.90
70079;DHT22;57451;52.496;13.456;2023-02-22T04:29:10;7.60;72.20
70079;DHT22;57451;52.496;13.456;2023-02-22T04:31:39;7.60;72.10
70079;DHT22;57451;52.496;13.456;2023-02-22T04:34:06;7.60;72.20
70079;DHT22;57451;52.496;13.456;2023-02-22T04:36:37;7.60;72.20
70079;DHT22;57451;52.496;13.456;2023-02-22T04:39:06;7.50;72.40
70079;DHT22;57451;52.496;13.456;2023-02-22T04:41:33;7.50;72.30
70079;DHT22;57451;52.496;13.456;2023-02-22T04:44:00;7.50;72.10
70079;DHT22;57451;52.496;13.456;2023-02-22T04:46:28;7.50;72.20
70079;DHT22;57451;52.496;13.456;2023-02-22T04:48:56;7.50;71.70
70079;DHT22;57451;52.496;13.456;2023-02-22T04:51:26;7.50;71.50
70079;DHT22;57451;52.496;13.456;2023-02-22T04:54:02;7.40;71.50
70079;DHT22;57451;52.496;13.456;2023-02-22T04:56:34;7.40;72.20
70079;DHT22;57451;52.496;13.456;2023-02-22T04:59:02;7.40;72.40
70079;DHT22;57451;52.496;13.456;2023-02-22T05:01:30;7.50;72.50
70079;DHT22;57451;52.496;13.456;2023-02-22T05:04:00;7.40;72.40
70079;DHT22;57451;52.496;13.456;2023-02-22T05:06:28;7.50;72.40
70079;DHT22;57451;52.496;13.456;2023-02-22T05:08:55;7.50;72.50
70079;DHT22;57451;52.496;13.456;2023-02-22T05:11:22;7.40;72.90
70079;DHT22;57451;52.496;13.456;2023-02-22T05:13:51;7.40;72.80
70079;DHT22;57451;52.496;13.456;2023-02-22T05:16:18;7.40;72.90
70079;DHT22;57451;52.496;13.456;2023-02-22T05:18:46;7.40;73.10
70079;DHT22;57451;52.496;13.456;2023-02-22T05:21:13;7.40;73.30
70079;DHT22;57451;52.496;13.456;2023-02-22T05:23:41;7.40;73.20
70079;DHT22;57451;52.496;13.456;2023-02-22T05:26:08;7.50;73.00
70079;DHT22;57451;52.496;13.456;2023-02-22T05:28:37;7.40;73.00
70079;DHT22;57451;52.496;13.456;2023-02-22T05:31:06;7.40;72.60
70079;DHT22;57451;52.496;13.456;2023-02-22T05:33:34;7.30;72.40
70079;DHT22;57451;52.496;13.456;2023-02-22T05:36:01;7.30;73.00
70079;DHT22;57451;52.496;13.456;2023-02-22T05:38:28;7.30;73.10
70079;DHT22;57451;52.496;13.456;2023-02-22T05:40:56;7.30;73.30
70079;DHT22;57451;52.496;13.456;2023-02-22T05:43:23;7.30;73.60
70079;DHT22;57451;52.496;13.456;2023-02-22T05:45:50;7.30;73.60
70079;DHT22;57451;52.496;13.456;2023-02-22T05:48:19;7.30;73.90
70079;DHT22;57451;52.496;13.456;2023-02-22T05:50:48;7.30;74.20
70079;DHT22;57451;52.496;13.456;2023-02-22T05:53:16;7.30;74.10
70079;DHT22;57451;52.496;13.456;2023-02-22T05:55:43;7.30;74.40
70079;DHT22;57451;52.496;13.456;2023-02-22T05:58:12;7.30;74.40
70079;DHT22;57451;52.496;13.456;2023-02-22T06:00:39;7.30;74.60
70079;DHT22;57451;52.496;13.456;2023-02-22T06:03:08;7.30;74.80
70079;DHT22;57451;52.496;13.456;2023-02-22T06:05:36;7.30;74.70
70079;DHT22;57451;52.496;13.456;2023-02-22T06:08:05;7.30;74.50
70079;DHT22;57451;52.496;13.456;2023-02-22T06:10:33;7.30;74.60
70079;DHT22;57451;52.496;13.456;2023-02-22T06:13:01;7.40;74.70
70079;DHT22;57451;52.496;13.456;2023-02-22T06:15:29;7.40;74.60
70079;DHT22;57451;52.496;13.456;2023-02-22T06:17:57;7.40;74.50
70079;DHT22;57451;52.496;13.456;2023-02-22T06:20:26;7.40;74.50
70079;DHT22;57451;52.496;13.456;2023-02-22T06:22:56;7.40;74.80
70079;DHT22;57451;52.496;13.456;2023-02-22T06:25:27;7.40;74.80
70079;DHT22;57451;52.496;13.456;2023-02-22T06:27:54;7.40;74.80
70079;DHT22;57451;52.496;13.456;2023-02-22T06:30:23;7.40;74.60
70079;DHT22;57451;52.496;13.456;2023-02-22T06:32:51;7.40;74.70
70079;DHT22;57451;52.496;13.456;2023-02-22T06:35:18;7.40;74.70
70079;DHT22;57451;52.496;13.456;2023-02-22T06:37:46;7.40;74.70
70079;DHT22;57451;52.496;13.456;2023-02-22T06:40:14;7.40;74.60
70079;DHT22;57451;52.496;13.456;2023-02-22T06:42:42;7.40;74.50
70079;DHT22;57451;52.496;13.456;2023-02-22T06:45:09;7.40;74.70
70079;DHT22;57451;52.496;13.456;2023-02-22T06:47:38;7.40;74.70
70079;DHT22;57451;52.496;13.456;2023-02-22T06:50:09;7.40;74.80
70079;DHT22;57451;52.496;13.456;2023-02-22T06:52:42;7.40;74.80
70079;DHT22;57451;52.496;13.456;2023-02-22T06:55:09;7.40;74.70
70079;DHT22;57451;52.496;13.456;2023-02-22T06:57:38;7.50;74.70
70079;DHT22;57451;52.496;13.456;2023-02-22T07:00:07;7.50;74.60
70079;DHT22;57451;52.496;13.456;2023-02-22T07:02:35;7.50;74.40
70079;DHT22;57451;52.496;13.456;2023-02-22T07:05:02;7.50;74.40
70079;DHT22;57451;52.496;13.456;2023-02-22T07:07:29;7.50;74.40
70079;DHT22;57451;52.496;13.456;2023-02-22T07:09:57;7.50;74.30
70079;DHT22;57451;52.496;13.456;2023-02-22T07:12:24;7.50;74.40
70079;DHT22;57451;52.496;13.456;2023-02-22T07:14:54;7.60;74.50
70079;DHT22;57451;52.496;13.456;2023-02-22T07:17:22;7.60;74.60
70079;DHT22;57451;52.496;13.456;2023-02-22T07:19:49;7.60;74.70
70079;DHT22;57451;52.496;13.456;2023-02-22T07:22:16;7.60;74.70
70079;DHT22;57451;52.496;13.456;2023-02-22T07:24:44;7.70;74.60
70079;DHT22;57451;52.496;13.456;2023-02-22T07:27:11;7.70;74.30
70079;DHT22;57451;52.496;13.456;2023-02-22T07:29:41;7.70;74.00
70079;DHT22;57451;52.496;13.456;2023-02-22T07:32:10;7.70;73.90
70079;DHT22;57451;52.496;13.456;2023-02-22T07:34:37;7.70;73.90
70079;DHT22;57451;52.496;13.456;2023-02-22T07:37:04;7.70;73.90
70079;DHT22;57451;52.496;13.456;2023-02-22T07:39:32;7.70;73.80
70079;DHT22;57451;52.496;13.456;2023-02-22T07:42:00;7.80;73.70
70079;DHT22;57451;52.496;13.456;2023-02-22T07:44:28;7.80;73.50
70079;DHT22;57451;52.496;13.456;2023-02-22T07:46:55;7.70;73.60
70079;DHT22;57451;52.496;13.456;2023-02-22T07:49:24;7.80;73.70
70079;DHT22;57451;52.496;13.456;2023-02-22T07:51:51;7.80;73.50
70079;DHT22;57451;52.496;13.456;2023-02-22T07:54:19;7.80;73.50
70079;DHT22;57451;52.496;13.456;2023-02-22T07:56:47;7.80;73.50
70079;DHT22;57451;52.496;13.456;2023-02-22T07:59:14;7.80;73.70
70079;DHT22;57451;52.496;13.456;2023-02-22T08:01:42;7.80;73.60
70079;DHT22;57451;52.496;13.456;2023-02-22T08:04:09;7.90;73.40
70079;DHT22;57451;52.496;13.456;2023-02-22T08:06:37;7.90;73.40
70079;DHT22;57451;52.496;13.456;2023-02-22T08:09:05;7.90;73.20
70079;DHT22;57451;52.496;13.456;2023-02-22T08:11:32;7.90;73.20
70079;DHT22;57451;52.496;13.456;2023-02-22T08:13:59;7.90;73.20
70079;DHT22;57451;52.496;13.456;2023-02-22T08:16:26;7.90;73.20
70079;DHT22;57451;52.496;13.456;2023-02-22T08:18:54;7.90;73.10
70079;DHT22;57451;52.496;13.456;2023-02-22T08:21:21;8.00;73.10
70079;DHT22;57451;52.496;13.456;2023-02-22T08:23:51;8.00;72.90
70079;DHT22;57451;52.496;13.456;2023-02-22T08:26:20;8.00;72.90
70079;DHT22;57451;52.496;13.456;2023-02-22T08:28:47;8.00;72.70
70079;DHT22;57451;52.496;13.456;2023-02-22T08:31:15;8.00;72.90
70079;DHT22;57451;52.496;13.456;2023-02-22T08:33:46;8.00;72.80
70079;DHT22;57451;52.496;13.456;2023-02-22T08:36:13;8.00;72.70
70079;DHT22;57451;52.496;13.456;2023-02-22T08:38:41;8.10;72.60
70079;DHT22;57451;52.496;13.456;2023-02-22T08:41:10;8.10;72.60
70079;DHT22;57451;52.496;13.456;2023-02-22T08:43:37;8.10;72.60
70079;DHT22;57451;52.496;13.456;2023-02-22T08:46:04;8.10;72.50
70079;DHT22;57451;52.496;13.456;2023-02-22T08:48:31;8.20;72.40
70079;DHT22;57451;52.496;13.456;2023-02-22T08:50:59;8.20;72.40
70079;DHT22;57451;52.496;13.456;2023-02-22T08:53:26;8.20;72.20
70079;DHT22;57451;52.496;13.456;2023-02-22T08:55:54;8.30;72.20
70079;DHT22;57451;52.496;13.456;2023-02-22T08:58:22;8.20;72.30
70079;DHT22;57451;52.496;13.456;2023-02-22T09:00:49;8.30;72.20
70079;DHT22;57451;52.496;13.456;2023-02-22T09:03:16;8.30;72.10
70079;DHT22;57451;52.496;13.456;2023-02-22T09:05:44;8.40;72.00
70079;DHT22;57451;52.496;13.456;2023-02-22T09:08:11;8.40;72.00
70079;DHT22;57451;52.496;13.456;2023-02-22T09:10:39;8.40;72.00
70079;DHT22;57451;52.496;13.456;2023-02-22T09:13:07;8.50;71.90
70079;DHT22;57451;52.496;13.456;2023-02-22T09:15:35;8.50;71.80
70079;DHT22;57451;52.496;13.456;2023-02-22T09:18:03;8.60;71.80
70079;DHT22;57451;52.496;13.456;2023-02-22T09:20:31;8.60;71.40
70079;DHT22;57451;52.496;13.456;2023-02-22T09:22:58;8.60;71.30
70079;DHT22;57451;52.496;13.456;2023-02-22T09:25:25;8.60;71.00
70079;DHT22;57451;52.496;13.456;2023-02-22T09:27:54;8.70;71.20
70079;DHT22;57451;52.496;13.456;2023-02-22T09:30:24;8.70;71.30
70079;DHT22;57451;52.496;13.456;2023-02-22T09:32:56;8.70;71.10
70079;DHT22;57451;52.496;13.456;2023-02-22T09:35:24;8.80;71.00
70079;DHT22;57451;52.496;13.456;2023-02-22T09:37:54;8.80;71.00
70079;DHT22;57451;52.496;13.456;2023-02-22T09:40:22;8.80;71.00
70079;DHT22;57451;52.496;13.456;2023-02-22T09:43:00;8.80;70.40
70079;DHT22;57451;52.496;13.456;2023-02-22T09:45:31;8.80;70.60
70079;DHT22;57451;52.496;13.456;2023-02-22T09:48:05;8.90;70.60
70079;DHT22;57451;52.496;13.456;2023-02-22T09:50:49;8.90;69.90
70079;DHT22;57451;52.496;13.456;2023-02-22T09:53:22;8.90;69.90
70079;DHT22;57451;52.496;13.456;2023-02-22T09:55:59;9.00;69.90
70079;DHT22;57451;52.496;13.456;2023-02-22T09:58:32;9.00;69.60
70079;DHT22;57451;52.496;13.456;2023-02-22T10:01:11;9.00;69.60
70079;DHT22;57451;52.496;13.456;2023-02-22T10:03:48;9.10;69.50
70079;DHT22;57451;52.496;13.456;2023-02-22T10:06:19;9.10;69.30
70079;DHT22;57451;52.496;13.456;2023-02-22T10:08:48;9.10;69.20
70079;DHT22;57451;52.496;13.456;2023-02-22T10:11:27;9.20;69.20
70079;DHT22;57451;52.496;13.456;2023-02-22T10:14:02;9.20;69.00
70079;DHT22;57451;52.496;13.456;2023-02-22T10:16:33;9.20;69.10
70079;DHT22;57451;52.496;13.456;2023-02-22T10:19:23;9.20;69.10
70079;DHT22;57451;52.496;13.456;2023-02-22T10:22:06;9.30;68.90
70079;DHT22;57451;52.496;13.456;2023-02-22T10:24:47;9.30;68.70
70079;DHT22;57451;52.496;13.456;2023-02-22T10:27:19;9.30;68.70
70079;DHT22;57451;52.496;13.456;2023-02-22T10:29:50;9.40;68.70
70079;DHT22;57451;52.496;13.456;2023-02-22T10:32:31;9.40;68.10
70079;DHT22;57451;52.496;13.456;2023-02-22T10:35:15;9.50;67.80
70079;DHT22;57451;52.496;13.456;2023-02-22T10:37:44;9.50;68.00
70079;DHT22;57451;52.496;13.456;2023-02-22T10:40:16;9.50;67.80
70079;DHT22;57451;52.496;13.456;2023-02-22T10:42:44;9.60;67.20
70079;DHT22;57451;52.496;13.456;2023-02-22T10:45:20;9.60;66.70
70079;DHT22;57451;52.496;13.456;2023-02-22T10:47:50;9.70;66.40
70079;DHT22;57451;52.496;13.456;2023-02-22T10:50:22;9.70;66.40
70079;DHT22;57451;52.496;13.456;2023-02-22T10:52:49;9.70;66.10
70079;DHT22;57451;52.496;13.456;2023-02-22T10:55:17;9.80;66.40
70079;DHT22;57451;52.496;13.456;2023-02-22T10:57:46;9.80;66.60
70079;DHT22;57451;52.496;13.456;2023-02-22T11:00:18;9.90;65.80
70079;DHT22;57451;52.496;13.456;2023-02-22T11:02:50;9.90;65.40
70079;DHT22;57451;52.496;13.456;2023-02-22T11:05:29;9.90;65.10
70079;DHT22;57451;52.496;13.456;2023-02-22T11:08:22;9.90;64.50
70079;DHT22;57451;52.496;13.456;2023-02-22T11:10:51;9.80;64.40
70079;DHT22;57451;52.496;13.456;2023-02-22T11:13:24;9.80;64.60
70079;DHT22;57451;52.496;13.456;2023-02-22T11:15:52;9.80;65.00
70079;DHT22;57451;52.496;13.456;2023-02-22T11:18:26;9.90;65.00
70079;DHT22;57451;52.496;13.456;2023-02-22T11:21:06;9.90;64.90
70079;DHT22;57451;52.496;13.456;2023-02-22T11:23:36;9.80;65.00
70079;DHT22;57451;52.496;13.456;2023-02-22T11:26:08;9.80;64.60
70079;DHT22;57451;52.496;13.456;2023-02-22T11:28:36;9.80;65.30
70079;DHT22;57451;52.496;13.456;2023-02-22T11:31:17;9.90;65.60
70079;DHT22;57451;52.496;13.456;2023-02-22T11:33:50;10.00;65.30
70079;DHT22;57451;52.496;13.456;2023-02-22T11:36:31;10.00;65.00
70079;DHT22;57451;52.496;13.456;2023-02-22T11:38:59;10.00;64.50
70079;DHT22;57451;52.496;13.456;2023-02-22T11:41:28;10.00;65.00
70079;DHT22;57451;52.496;13.456;2023-02-22T11:44:12;10.00;64.80
70079;DHT22;57451;52.496;13.456;2023-02-22T11:46:40;10.00;65.00
70079;DHT22;57451;52.496;13.456;2023-02-22T11:49:10;10.00;64.40
70079;DHT22;57451;52.496;13.456;2023-02-22T11:51:50;10.00;64.60
70079;DHT22;57451;52.496;13.456;2023-02-22T11:54:38;10.00;64.80
70079;DHT22;57451;52.496;13.456;2023-02-22T11:57:17;10.00;64.60
70079;DHT22;57451;52.496;13.456;2023-02-22T12:00:04;10.00;64.70
70079;DHT22;57451;52.496;13.456;2023-02-22T12:02:49;10.00;63.70
70079;DHT22;57451;52.496;13.456;2023-02-22T12:05:33;10.00;64.20
70079;DHT22;57451;52.496;13.456;2023-02-22T12:08:18;10.00;64.20
70079;DHT22;57451;52.496;13.456;2023-02-22T12:10:55;10.00;63.60
70079;DHT22;57451;52.496;13.456;2023-02-22T12:13:36;10.00;63.20
70079;DHT22;57451;52.496;13.456;2023-02-22T12:16:17;9.90;63.70
70079;DHT22;57451;52.496;13.456;2023-02-22T12:18:58;10.00;63.90
70079;DHT22;57451;52.496;13.456;2023-02-22T12:21:30;10.00;63.00
70079;DHT22;57451;52.496;13.456;2023-02-22T12:24:03;10.10;63.10
70079;DHT22;57451;52.496;13.456;2023-02-22T12:26:35;10.10;63.40
70079;DHT22;57451;52.496;13.456;2023-02-22T12:29:07;10.10;62.90
70079;DHT22;57451;52.496;13.456;2023-02-22T12:31:42;10.10;62.60
70079;DHT22;57451;52.496;13.456;2023-02-22T12:34:22;10.10;62.60
70079;DHT22;57451;52.496;13.456;2023-02-22T12:36:57;10.10;62.40
70079;DHT22;57451;52.496;13.456;2023-02-22T12:39:36;10.10;62.20
70079;DHT22;57451;52.496;13.456;2023-02-22T12:42:23;10.10;63.50
70079;DHT22;57451;52.496;13.456;2023-02-22T12:44:55;10.10;62.80
70079;DHT22;57451;52.496;13.456;2023-02-22T12:47:30;10.10;62.00
70079;DHT22;57451;52.496;13.456;2023-02-22T12:50:05;10.20;61.80
70079;DHT22;57451;52.496;13.456;2023-02-22T12:52:44;10.20;62.40
70079;DHT22;57451;52.496;13.456;2023-02-22T12:55:18;10.20;61.60
70079;DHT22;57451;52.496;13.456;2023-02-22T12:57:53;10.20;61.50
70079;DHT22;57451;52.496;13.456;2023-02-22T13:00:26;10.20;61.60
70079;DHT22;57451;52.496;13.456;2023-02-22T13:02:59;10.20;60.70
70079;DHT22;57451;52.496;13.456;2023-02-22T13:05:33;10.20;60.60
70079;DHT22;57451;52.496;13.456;2023-02-22T13:08:19;10.20;60.90
70079;DHT22;57451;52.496;13.456;2023-02-22T13:10:56;10.20;60.40
70079;DHT22;57451;52.496;13.456;2023-02-22T13:13:33;10.20;60.70
70079;DHT22;57451;52.496;13.456;2023-02-22T13:16:09;10.20;60.70
70079;DHT22;57451;52.496;13.456;2023-02-22T13:18:46;10.20;60.40
70079;DHT22;57451;52.496;13.456;2023-02-22T13:21:17;10.30;60.10
70079;DHT22;57451;52.496;13.456;2023-02-22T13:23:52;10.30;60.40
70079;DHT22;57451;52.496;13.456;2023-02-22T13:26:36;10.30;61.10
70079;DHT22;57451;52.496;13.456;2023-02-22T13:29:11;10.30;61.30
70079;DHT22;57451;52.496;13.456;2023-02-22T13:32:03;10.30;61.10
70079;DHT22;57451;52.496;13.456;2023-02-22T13:34:42;10.30;60.90
70079;DHT22;57451;52.496;13.456;2023-02-22T13:37:40;10.30;60.70
70079;DHT22;57451;52.496;13.456;2023-02-22T13:40:21;10.30;60.90
70079;DHT22;57451;52.496;13.456;2023-02-22T13:43:05;10.30;61.20
70079;DHT22;57451;52.496;13.456;2023-02-22T13:45:47;10.30;62.00
70079;DHT22;57451;52.496;13.456;2023-02-22T13:48:50;10.30;61.30
70079;DHT22;57451;52.496;13.456;2023-02-22T13:51:42;10.40;61.10
70079;DHT22;57451;52.496;13.456;2023-02-22T13:54:16;10.40;61.40
70079;DHT22;57451;52.496;13.456;2023-02-22T13:56:47;10.30;61.40
70079;DHT22;57451;52.496;13.456;2023-02-22T13:59:26;10.30;61.20
70079;DHT22;57451;52.496;13.456;2023-02-22T14:01:53;10.30;61.60
70079;DHT22;57451;52.496;13.456;2023-02-22T14:04:35;10.30;61.20
70079;DHT22;57451;52.496;13.456;2023-02-22T14:07:47;10.20;61.50
70079;DHT22;57451;52.496;13.456;2023-02-22T14:10:44;10.30;61.40
70079;DHT22;57451;52.496;13.456;2023-02-22T14:13:13;10.30;60.80
70079;DHT22;57451;52.496;13.456;2023-02-22T14:16:15;10.30;61.50
70079;DHT22;57451;52.496;13.456;2023-02-22T14:18:44;10.30;61.10
70079;DHT22;57451;52.496;13.456;2023-02-22T14:21:13;10.30;61.50
70079;DHT22;57451;52.496;13.456;2023-02-22T14:23:48;10.40;61.00
70079;DHT22;57451;52.496;13.456;2023-02-22T14:26:18;10.40;61.40
70079;DHT22;57451;52.496;13.456;2023-02-22T14:28:52;10.40;60.80
70079;DHT22;57451;52.496;13.456;2023-02-22T14:31:22;10.40;60.40
70079;DHT22;57451;52.496;13.456;2023-02-22T14:34:08;10.30;60.70
70079;DHT22;57451;52.496;13.456;2023-02-22T14:36:41;10.40;60.70
70079;DHT22;57451;52.496;13.456;2023-02-22T14:39:16;10.40;60.20
70079;DHT22;57451;52.496;13.456;2023-02-22T14:41:50;10.30;60.90
70079;DHT22;57451;52.496;13.456;2023-02-22T14:44:23;10.30;61.10
70079;DHT22;57451;52.496;13.456;2023-02-22T14:46:55;10.20;61.00
70079;DHT22;57451;52.496;13.456;2023-02-22T14:49:24;10.20;61.30
70079;DHT22;57451;52.496;13.456;2023-02-22T14:51:56;10.30;61.20
70079;DHT22;57451;52.496;13.456;2023-02-22T14:54:29;10.30;61.20
70079;DHT22;57451;52.496;13.456;2023-02-22T14:57:08;10.30;61.70
70079;DHT22;57451;52.496;13.456;2023-02-22T14:59:49;10.30;61.90
70079;DHT22;57451;52.496;13.456;2023-02-22T15:02:18;10.30;61.30
70079;DHT22;57451;52.496;13.456;2023-02-22T15:04:50;10.30;61.40
70079;DHT22;57451;52.496;13.456;2023-02-22T15:07:23;10.30;61.50
70079;DHT22;57451;52.496;13.456;2023-02-22T15:10:20;10.20;61.90
70079;DHT22;57451;52.496;13.456;2023-02-22T15:12:56;10.20;61.90
70079;DHT22;57451;52.496;13.456;2023-02-22T15:15:36;10.20;62.30
70079;DHT22;57451;52.496;13.456;2023-02-22T15:18:11;10.20;62.20
70079;DHT22;57451;52.496;13.456;2023-02-22T15:20:40;10.20;62.10
70079;DHT22;57451;52.496;13.456;2023-02-22T15:23:07;10.10;62.20
70079;DHT22;57451;52.496;13.456;2023-02-22T15:25:36;10.10;62.50
70079;DHT22;57451;52.496;13.456;2023-02-22T15:28:05;10.10;62.40
70079;DHT22;57451;52.496;13.456;2023-02-22T15:30:35;10.10;62.60
70079;DHT22;57451;52.496;13.456;2023-02-22T15:33:12;10.10;62.40
70079;DHT22;57451;52.496;13.456;2023-02-22T15:35:41;10.10;62.60
70079;DHT22;57451;52.496;13.456;2023-02-22T15:38:18;10.00;62.80
70079;DHT22;57451;52.496;13.456;2023-02-22T15:40:58;10.00;62.80
70079;DHT22;57451;52.496;13.456;2023-02-22T15:43:25;10.00;62.80
70079;DHT22;57451;52.496;13.456;2023-02-22T15:45:57;10.00;63.10
70079;DHT22;57451;52.496;13.456;2023-02-22T15:48:26;9.90;63.20
70079;DHT22;57451;52.496;13.456;2023-02-22T15:51:06;10.00;63.00
70079;DHT22;57451;52.496;13.456;2023-02-22T15:53:39;9.90;63.20
70079;DHT22;57451;52.496;13.456;2023-02-22T15:56:12;9.90;63.20
70079;DHT22;57451;52.496;13.456;2023-02-22T15:58:41;9.90;63.40